sensor_id;sensor_type;location;lat;lon;timestamp;temperature;humidity
16728;DHT22;8482;54.396;18.590;2023-03-20T00:01:58;10.40;99.90
16728;DHT22;8482;54.396;18.590;2023-03-20T00:04:24;10.40;99.90
16728;DHT22;8482;54.396;18.590;2023-03-20T00:06:50;10.40;99.90
16728;DHT22;8482;54.396;18.590;2023-03-20T00:09:16;10.50;99.90
16728;DHT22;8482;54.396;18.590;2023-03-20T00:11:53;10.50;99.90
16728;DHT22;8482;54.396;18.590;2023-03-20T00:14:21;10.50;99.90
16728;DHT22;8482;54.396;18.590;2023-03-20T00:16:49;10.50;99.90
16728;DHT22;8482;54.396;18.590;2023-03-20T00:19:21;10.50;99.90
16728;DHT22;8482;54.396;18.590;2023-03-20T00:21:49;10.50;99.90
16728;DHT22;8482;54.396;18.590;2023-03-20T00:24:17;10.50;99.90
16728;DHT22;8482;54.396;18.590;2023-03-20T00:26:44;10.50;99.90
16728;DHT22;8482;54.396;18.590;2023-03-20T00:29:24;10.50;99.90
16728;DHT22;8482;54.396;18.590;2023-03-20T00:31:53;10.50;99.90
16728;DHT22;8482;54.396;18.590;2023-03-20T00:34:21;10.50;99.90
16728;DHT22;8482;54.396;18.590;2023-03-20T00:36:50;10.60;99.90
16728;DHT22;8482;54.396;18.590;2023-03-20T00:39:17;10.60;99.90
16728;DHT22;8482;54.396;18.590;2023-03-20T00:41:52;10.60;99.90
16728;DHT22;8482;54.396;18.590;2023-03-20T00:44:38;10.60;99.90
16728;DHT22;8482;54.396;18.590;2023-03-20T00:47:18;10.60;99.90
16728;DHT22;8482;54.396;18.590;2023-03-20T00:49:47;10.60;99.90
16728;DHT22;8482;54.396;18.590;2023-03-20T00:52:16;10.60;99.90
16728;DHT22;8482;54.396;18.590;2023-03-20T00:54:43;10.60;99.90
16728;DHT22;8482;54.396;18.590;2023-03-20T01:03:16;10.60;99.90
16728;DHT22;8482;54.396;18.590;2023-03-20T01:05:45;10.70;99.90
16728;DHT22;8482;54.396;18.590;2023-03-20T01:08:13;10.70;99.90
16728;DHT22;8482;54.396;18.590;2023-03-20T01:10:40;10.70;99.90
16728;DHT22;8482;54.396;18.590;2023-03-20T01:13:22;10.70;99.90
16728;DHT22;8482;54.396;18.590;2023-03-20T01:15:50;10.70;99.90
16728;DHT22;8482;54.396;18.590;2023-03-20T01:18:19;10.70;99.90
16728;DHT22;8482;54.396;18.590;2023-03-20T01:20:47;10.70;99.90
16728;DHT22;8482;54.396;18.590;2023-03-20T01:23:14;10.80;99.90
16728;DHT22;8482;54.396;18.590;2023-03-20T01:25:41;10.80;99.90
16728;DHT22;8482;54.396;18.590;2023-03-20T01:28:22;10.80;99.90
16728;DHT22;8482;54.396;18.590;2023-03-20T01:30:49;10.80;99.90
16728;DHT22;8482;54.396;18.590;2023-03-20T01:33:18;10.80;99.90
16728;DHT22;8482;54.396;18.590;2023-03-20T01:35:46;10.80;99.90
16728;DHT22;8482;54.396;18.590;2023-03-20T01:38:20;10.80;99.90
16728;DHT22;8482;54.396;18.590;2023-03-20T01:43:24;10.90;99.90
16728;DHT22;8482;54.396;18.590;2023-03-20T01:51:23;10.90;99.90
16728;DHT22;8482;54.396;18.590;2023-03-20T01:54:20;10.90;99.90
16728;DHT22;8482;54.396;18.590;2023-03-20T01:56:59;10.90;99.90
16728;DHT22;8482;54.396;18.590;2023-03-20T01:59:53;10.90;99.90
16728;DHT22;8482;54.396;18.590;2023-03-20T02:02:28;10.90;99.90
16728;DHT22;8482;54.396;18.590;2023-03-20T02:05:03;10.90;99.90
16728;DHT22;8482;54.396;18.590;2023-03-20T02:07:34;10.90;99.90
16728;DHT22;8482;54.396;18.590;2023-03-20T02:10:04;10.90;99.90
16728;DHT22;8482;54.396;18.590;2023-03-20T02:12:34;10.90;99.90
16728;DHT22;8482;54.396;18.590;2023-03-20T02:15:02;10.90;99.90
16728;DHT22;8482;54.396;18.590;2023-03-20T02:17:29;10.90;99.90
16728;DHT22;8482;54.396;18.590;2023-03-20T02:20:35;10.90;99.90
16728;DHT22;8482;54.396;18.590;2023-03-20T02:26:11;10.90;99.90
16728;DHT22;8482;54.396;18.590;2023-03-20T02:37:14;10.70;99.90
16728;DHT22;8482;54.396;18.590;2023-03-20T02:43:07;10.60;99.90
16728;DHT22;8482;54.396;18.590;2023-03-20T02:48:39;10.60;99.90
16728;DHT22;8482;54.396;18.590;2023-03-20T03:05:05;10.30;99.90
16728;DHT22;8482;54.396;18.590;2023-03-20T03:07:41;10.30;99.90
16728;DHT22;8482;54.396;18.590;2023-03-20T03:10:15;10.20;99.90
16728;DHT22;8482;54.396;18.590;2023-03-20T03:12:48;10.20;99.90
16728;DHT22;8482;54.396;18.590;2023-03-20T03:15:41;10.20;99.90
16728;DHT22;8482;54.396;18.590;2023-03-20T03:18:20;10.20;99.90
16728;DHT22;8482;54.396;18.590;2023-03-20T03:20:55;10.20;99.90
16728;DHT22;8482;54.396;18.590;2023-03-20T03:23:28;10.20;99.90
16728;DHT22;8482;54.396;18.590;2023-03-20T03:26:06;10.10;99.90
16728;DHT22;8482;54.396;18.590;2023-03-20T03:28:47;10.10;99.90
16728;DHT22;8482;54.396;18.590;2023-03-20T03:31:28;10.10;99.90
16728;DHT22;8482;54.396;18.590;2023-03-20T03:33:58;10.10;99.90
16728;DHT22;8482;54.396;18.590;2023-03-20T03:36:37;10.10;99.90
16728;DHT22;8482;54.396;18.590;2023-03-20T03:45:48;10.20;99.90
16728;DHT22;8482;54.396;18.590;2023-03-20T03:48:28;10.20;99.90
16728;DHT22;8482;54.396;18.590;2023-03-20T03:51:06;10.20;99.90
16728;DHT22;8482;54.396;18.590;2023-03-20T03:53:40;10.20;99.90
16728;DHT22;8482;54.396;18.590;2023-03-20T03:56:13;10.30;99.90
16728;DHT22;8482;54.396;18.590;2023-03-20T03:58:46;10.30;99.90
16728;DHT22;8482;54.396;18.590;2023-03-20T04:01:16;10.30;99.90
16728;DHT22;8482;54.396;18.590;2023-03-20T04:03:49;10.30;99.90
16728;DHT22;8482;54.396;18.590;2023-03-20T04:06:18;10.40;99.90
16728;DHT22;8482;54.396;18.590;2023-03-20T04:08:45;10.40;99.90
16728;DHT22;8482;54.396;18.590;2023-03-20T04:11:22;10.40;99.90
16728;DHT22;8482;54.396;18.590;2023-03-20T04:13:51;10.40;99.90
16728;DHT22;8482;54.396;18.590;2023-03-20T04:16:19;10.40;99.90
16728;DHT22;8482;54.396;18.590;2023-03-20T04:18:46;10.40;99.90
16728;DHT22;8482;54.396;18.590;2023-03-20T04:21:13;10.40;99.90
16728;DHT22;8482;54.396;18.590;2023-03-20T04:23:40;10.40;99.90
16728;DHT22;8482;54.396;18.590;2023-03-20T04:26:06;10.40;99.90
16728;DHT22;8482;54.396;18.590;2023-03-20T04:28:33;10.40;99.90
16728;DHT22;8482;54.396;18.590;2023-03-20T04:31:00;10.50;99.90
16728;DHT22;8482;54.396;18.590;2023-03-20T04:33:27;10.50;99.90
16728;DHT22;8482;54.396;18.590;2023-03-20T04:35:53;10.50;99.90
16728;DHT22;8482;54.396;18.590;2023-03-20T04:38:20;10.50;99.90
16728;DHT22;8482;54.396;18.590;2023-03-20T04:40:47;10.60;99.90
16728;DHT22;8482;54.396;18.590;2023-03-20T04:43:15;10.50;99.90
16728;DHT22;8482;54.396;18.590;2023-03-20T04:45:41;10.60;99.90
16728;DHT22;8482;54.396;18.590;2023-03-20T04:48:07;10.60;99.90
16728;DHT22;8482;54.396;18.590;2023-03-20T04:50:33;10.60;99.90
16728;DHT22;8482;54.396;18.590;2023-03-20T04:52:59;10.60;99.90
16728;DHT22;8482;54.396;18.590;2023-03-20T04:55:25;10.60;99.90
16728;DHT22;8482;54.396;18.590;2023-03-20T04:57:51;10.60;99.90
16728;DHT22;8482;54.396;18.590;2023-03-20T05:00:17;10.60;99.90
16728;DHT22;8482;54.396;18.590;2023-03-20T05:02:43;10.60;99.90
16728;DHT22;8482;54.396;18.590;2023-03-20T05:05:10;10.60;99.90
16728;DHT22;8482;54.396;18.590;2023-03-20T05:07:36;10.60;99.90
16728;DHT22;8482;54.396;18.590;2023-03-20T05:10:03;10.70;99.90
16728;DHT22;8482;54.396;18.590;2023-03-20T05:12:30;10.70;99.90
16728;DHT22;8482;54.396;18.590;2023-03-20T05:14:56;10.70;99.90
16728;DHT22;8482;54.396;18.590;2023-03-20T05:17:23;10.70;99.90
16728;DHT22;8482;54.396;18.590;2023-03-20T05:19:49;10.70;99.90
16728;DHT22;8482;54.396;18.590;2023-03-20T05:22:16;10.70;99.90
16728;DHT22;8482;54.396;18.590;2023-03-20T05:24:43;10.70;99.90
16728;DHT22;8482;54.396;18.590;2023-03-20T05:27:09;10.70;99.90
16728;DHT22;8482;54.396;18.590;2023-03-20T05:29:36;10.80;99.90
16728;DHT22;8482;54.396;18.590;2023-03-20T05:32:02;10.80;99.90
16728;DHT22;8482;54.396;18.590;2023-03-20T05:34:28;10.70;99.90
16728;DHT22;8482;54.396;18.590;2023-03-20T05:36:54;10.80;99.90
16728;DHT22;8482;54.396;18.590;2023-03-20T05:39:20;10.80;99.90
16728;DHT22;8482;54.396;18.590;2023-03-20T05:41:47;10.80;99.90
16728;DHT22;8482;54.396;18.590;2023-03-20T05:44:13;10.80;99.90
16728;DHT22;8482;54.396;18.590;2023-03-20T05:46:39;10.80;99.90
16728;DHT22;8482;54.396;18.590;2023-03-20T05:49:04;10.80;99.90
16728;DHT22;8482;54.396;18.590;2023-03-20T05:51:30;10.90;99.90
16728;DHT22;8482;54.396;18.590;2023-03-20T05:53:56;10.90;99.90
16728;DHT22;8482;54.396;18.590;2023-03-20T05:56:22;11.00;99.90
16728;DHT22;8482;54.396;18.590;2023-03-20T05:58:48;11.00;99.90
16728;DHT22;8482;54.396;18.590;2023-03-20T06:01:14;11.10;99.90
16728;DHT22;8482;54.396;18.590;2023-03-20T06:03:46;11.10;99.90
16728;DHT22;8482;54.396;18.590;2023-03-20T06:06:14;11.20;99.90
16728;DHT22;8482;54.396;18.590;2023-03-20T06:08:40;11.20;99.90
16728;DHT22;8482;54.396;18.590;2023-03-20T06:11:07;11.20;99.90
16728;DHT22;8482;54.396;18.590;2023-03-20T06:13:34;11.30;99.90
16728;DHT22;8482;54.396;18.590;2023-03-20T06:16:00;11.30;99.90
16728;DHT22;8482;54.396;18.590;2023-03-20T06:18:26;11.40;99.90
16728;DHT22;8482;54.396;18.590;2023-03-20T06:20:53;11.40;99.90
16728;DHT22;8482;54.396;18.590;2023-03-20T06:23:19;11.40;99.90
16728;DHT22;8482;54.396;18.590;2023-03-20T06:25:45;11.50;99.90
16728;DHT22;8482;54.396;18.590;2023-03-20T06:28:11;11.50;99.90
16728;DHT22;8482;54.396;18.590;2023-03-20T06:30:37;11.50;99.90
16728;DHT22;8482;54.396;18.590;2023-03-20T06:33:06;11.50;99.90
16728;DHT22;8482;54.396;18.590;2023-03-20T06:35:32;11.60;99.90
16728;DHT22;8482;54.396;18.590;2023-03-20T06:37:58;11.70;99.90
16728;DHT22;8482;54.396;18.590;2023-03-20T06:40:25;11.60;99.90
16728;DHT22;8482;54.396;18.590;2023-03-20T06:42:54;11.70;99.90
16728;DHT22;8482;54.396;18.590;2023-03-20T06:45:21;11.70;99.90
16728;DHT22;8482;54.396;18.590;2023-03-20T06:47:47;11.70;99.90
16728;DHT22;8482;54.396;18.590;2023-03-20T06:50:14;11.80;99.90
16728;DHT22;8482;54.396;18.590;2023-03-20T06:52:40;11.80;99.90
16728;DHT22;8482;54.396;18.590;2023-03-20T06:55:07;11.80;99.90
16728;DHT22;8482;54.396;18.590;2023-03-20T06:57:33;11.90;99.90
16728;DHT22;8482;54.396;18.590;2023-03-20T06:59:59;11.90;99.90
16728;DHT22;8482;54.396;18.590;2023-03-20T07:02:25;11.90;99.90
16728;DHT22;8482;54.396;18.590;2023-03-20T07:04:55;12.00;99.90
16728;DHT22;8482;54.396;18.590;2023-03-20T07:07:21;12.00;99.90
16728;DHT22;8482;54.396;18.590;2023-03-20T07:09:47;12.00;99.90
16728;DHT22;8482;54.396;18.590;2023-03-20T07:12:14;12.00;99.90
16728;DHT22;8482;54.396;18.590;2023-03-20T07:14:44;12.10;99.90
16728;DHT22;8482;54.396;18.590;2023-03-20T07:17:11;12.10;99.90
16728;DHT22;8482;54.396;18.590;2023-03-20T07:19:37;12.10;99.90
16728;DHT22;8482;54.396;18.590;2023-03-20T07:22:06;12.20;99.90
16728;DHT22;8482;54.396;18.590;2023-03-20T07:24:39;12.20;99.90
16728;DHT22;8482;54.396;18.590;2023-03-20T07:27:05;12.20;99.90
16728;DHT22;8482;54.396;18.590;2023-03-20T07:29:31;12.30;99.90
16728;DHT22;8482;54.396;18.590;2023-03-20T07:31:57;12.30;99.90
16728;DHT22;8482;54.396;18.590;2023-03-20T07:34:25;12.30;99.90
16728;DHT22;8482;54.396;18.590;2023-03-20T07:36:51;12.40;99.90
16728;DHT22;8482;54.396;18.590;2023-03-20T07:39:17;12.40;99.90
16728;DHT22;8482;54.396;18.590;2023-03-20T07:41:43;12.40;99.90
16728;DHT22;8482;54.396;18.590;2023-03-20T07:44:09;12.50;99.90
16728;DHT22;8482;54.396;18.590;2023-03-20T07:46:35;12.50;99.90
16728;DHT22;8482;54.396;18.590;2023-03-20T07:49:01;12.50;99.90
16728;DHT22;8482;54.396;18.590;2023-03-20T07:51:26;12.60;99.90
16728;DHT22;8482;54.396;18.590;2023-03-20T07:53:52;12.60;99.90
16728;DHT22;8482;54.396;18.590;2023-03-20T07:56:18;12.60;99.90
16728;DHT22;8482;54.396;18.590;2023-03-20T07:58:45;12.70;99.90
16728;DHT22;8482;54.396;18.590;2023-03-20T08:01:11;12.70;99.90
16728;DHT22;8482;54.396;18.590;2023-03-20T08:03:37;12.70;99.90
16728;DHT22;8482;54.396;18.590;2023-03-20T08:06:04;12.80;99.90
16728;DHT22;8482;54.396;18.590;2023-03-20T08:08:32;12.80;99.90
16728;DHT22;8482;54.396;18.590;2023-03-20T08:10:58;12.80;99.90
16728;DHT22;8482;54.396;18.590;2023-03-20T08:13:24;12.80;99.90
16728;DHT22;8482;54.396;18.590;2023-03-20T08:15:49;12.80;99.90
16728;DHT22;8482;54.396;18.590;2023-03-20T08:18:16;12.90;99.90
16728;DHT22;8482;54.396;18.590;2023-03-20T08:20:42;12.90;99.90
16728;DHT22;8482;54.396;18.590;2023-03-20T08:23:07;12.90;99.90
16728;DHT22;8482;54.396;18.590;2023-03-20T08:25:33;12.90;99.90
16728;DHT22;8482;54.396;18.590;2023-03-20T08:28:00;13.00;99.90
16728;DHT22;8482;54.396;18.590;2023-03-20T08:30:26;13.00;99.90
16728;DHT22;8482;54.396;18.590;2023-03-20T08:32:52;13.00;99.90
16728;DHT22;8482;54.396;18.590;2023-03-20T08:35:18;13.00;99.90
16728;DHT22;8482;54.396;18.590;2023-03-20T08:37:44;13.00;99.90
16728;DHT22;8482;54.396;18.590;2023-03-20T08:40:10;13.00;99.90
16728;DHT22;8482;54.396;18.590;2023-03-20T08:42:37;13.00;99.90
16728;DHT22;8482;54.396;18.590;2023-03-20T08:45:03;13.00;99.90
16728;DHT22;8482;54.396;18.590;2023-03-20T08:47:29;13.10;99.90
16728;DHT22;8482;54.396;18.590;2023-03-20T08:49:56;13.20;99.90
16728;DHT22;8482;54.396;18.590;2023-03-20T08:52:21;13.30;99.90
16728;DHT22;8482;54.396;18.590;2023-03-20T08:54:47;13.40;99.90
16728;DHT22;8482;54.396;18.590;2023-03-20T08:57:13;13.50;99.90
16728;DHT22;8482;54.396;18.590;2023-03-20T08:59:39;13.50;99.90
16728;DHT22;8482;54.396;18.590;2023-03-20T09:02:06;13.60;99.90
16728;DHT22;8482;54.396;18.590;2023-03-20T09:04:32;13.70;99.90
16728;DHT22;8482;54.396;18.590;2023-03-20T09:06:57;13.80;99.90
16728;DHT22;8482;54.396;18.590;2023-03-20T09:09:25;13.90;99.90
16728;DHT22;8482;54.396;18.590;2023-03-20T09:11:54;14.00;99.90
16728;DHT22;8482;54.396;18.590;2023-03-20T09:14:23;14.00;99.90
16728;DHT22;8482;54.396;18.590;2023-03-20T09:16:50;14.10;99.90
16728;DHT22;8482;54.396;18.590;2023-03-20T09:19:17;14.20;99.90
16728;DHT22;8482;54.396;18.590;2023-03-20T09:21:44;14.30;99.90
16728;DHT22;8482;54.396;18.590;2023-03-20T09:24:10;14.30;99.90
16728;DHT22;8482;54.396;18.590;2023-03-20T09:26:37;14.40;99.90
16728;DHT22;8482;54.396;18.590;2023-03-20T09:29:04;14.50;99.90
16728;DHT22;8482;54.396;18.590;2023-03-20T09:31:31;14.60;99.90
16728;DHT22;8482;54.396;18.590;2023-03-20T09:33:56;14.70;99.90
16728;DHT22;8482;54.396;18.590;2023-03-20T09:36:22;14.70;99.90
16728;DHT22;8482;54.396;18.590;2023-03-20T09:38:48;14.80;99.90
16728;DHT22;8482;54.396;18.590;2023-03-20T09:41:23;14.80;99.90
16728;DHT22;8482;54.396;18.590;2023-03-20T09:55:41;15.00;99.90
16728;DHT22;8482;54.396;18.590;2023-03-20T10:00:46;14.90;99.90
16728;DHT22;8482;54.396;18.590;2023-03-20T10:03:21;14.90;99.90
16728;DHT22;8482;54.396;18.590;2023-03-20T10:05:59;14.80;99.90
16728;DHT22;8482;54.396;18.590;2023-03-20T10:08:38;14.80;99.90
16728;DHT22;8482;54.396;18.590;2023-03-20T10:13:54;14.90;99.90
16728;DHT22;8482;54.396;18.590;2023-03-20T10:19:59;15.00;99.90
16728;DHT22;8482;54.396;18.590;2023-03-20T10:22:52;15.10;99.90
16728;DHT22;8482;54.396;18.590;2023-03-20T10:25:45;15.10;99.90
16728;DHT22;8482;54.396;18.590;2023-03-20T10:28:21;15.10;99.90
16728;DHT22;8482;54.396;18.590;2023-03-20T10:40:26;15.20;99.90
16728;DHT22;8482;54.396;18.590;2023-03-20T10:43:09;15.30;99.90
16728;DHT22;8482;54.396;18.590;2023-03-20T10:45:52;15.20;99.90
16728;DHT22;8482;54.396;18.590;2023-03-20T10:48:24;15.20;99.90
16728;DHT22;8482;54.396;18.590;2023-03-20T10:50:58;15.20;99.90
16728;DHT22;8482;54.396;18.590;2023-03-20T10:53:40;15.10;99.90
16728;DHT22;8482;54.396;18.590;2023-03-20T10:56:31;15.10;99.90
16728;DHT22;8482;54.396;18.590;2023-03-20T10:59:07;15.10;99.90
16728;DHT22;8482;54.396;18.590;2023-03-20T11:01:41;15.10;99.90
16728;DHT22;8482;54.396;18.590;2023-03-20T11:04:06;15.10;99.90
16728;DHT22;8482;54.396;18.590;2023-03-20T11:09:41;15.00;99.90
16728;DHT22;8482;54.396;18.590;2023-03-20T11:12:16;14.90;99.90
16728;DHT22;8482;54.396;18.590;2023-03-20T11:14:44;14.90;99.90
16728;DHT22;8482;54.396;18.590;2023-03-20T11:17:11;14.90;99.90
16728;DHT22;8482;54.396;18.590;2023-03-20T11:19:40;14.80;99.90
16728;DHT22;8482;54.396;18.590;2023-03-20T11:22:27;14.70;99.90
16728;DHT22;8482;54.396;18.590;2023-03-20T11:24:56;14.70;99.90
16728;DHT22;8482;54.396;18.590;2023-03-20T11:27:28;14.60;99.90
16728;DHT22;8482;54.396;18.590;2023-03-20T11:30:05;14.60;99.90
16728;DHT22;8482;54.396;18.590;2023-03-20T11:32:41;14.50;99.90
16728;DHT22;8482;54.396;18.590;2023-03-20T11:35:29;14.40;99.90
16728;DHT22;8482;54.396;18.590;2023-03-20T11:38:18;14.30;99.90
16728;DHT22;8482;54.396;18.590;2023-03-20T11:40:46;14.20;99.90
16728;DHT22;8482;54.396;18.590;2023-03-20T11:43:18;14.10;99.90
16728;DHT22;8482;54.396;18.590;2023-03-20T11:45:57;14.10;99.90
16728;DHT22;8482;54.396;18.590;2023-03-20T11:48:39;14.00;99.90
16728;DHT22;8482;54.396;18.590;2023-03-20T11:51:14;14.10;99.90
16728;DHT22;8482;54.396;18.590;2023-03-20T11:56:12;14.20;99.90
16728;DHT22;8482;54.396;18.590;2023-03-20T12:01:24;14.20;99.90
16728;DHT22;8482;54.396;18.590;2023-03-20T12:04:00;14.20;99.90
16728;DHT22;8482;54.396;18.590;2023-03-20T12:06:48;14.20;99.90
16728;DHT22;8482;54.396;18.590;2023-03-20T12:12:14;14.20;99.90
16728;DHT22;8482;54.396;18.590;2023-03-20T12:15:28;14.10;99.90
16728;DHT22;8482;54.396;18.590;2023-03-20T12:17:55;14.20;99.90
16728;DHT22;8482;54.396;18.590;2023-03-20T12:20:44;14.30;99.90
16728;DHT22;8482;54.396;18.590;2023-03-20T12:23:55;14.50;99.90
16728;DHT22;8482;54.396;18.590;2023-03-20T12:26:17;14.60;99.90
16728;DHT22;8482;54.396;18.590;2023-03-20T12:32:19;14.70;99.90
16728;DHT22;8482;54.396;18.590;2023-03-20T12:35:33;14.90;99.90
16728;DHT22;8482;54.396;18.590;2023-03-20T12:37:58;15.20;99.90
16728;DHT22;8482;54.396;18.590;2023-03-20T12:40:37;15.50;99.90
16728;DHT22;8482;54.396;18.590;2023-03-20T12:43:15;15.60;99.90
16728;DHT22;8482;54.396;18.590;2023-03-20T12:46:03;15.70;99.90
16728;DHT22;8482;54.396;18.590;2023-03-20T12:52:00;16.00;99.90
16728;DHT22;8482;54.396;18.590;2023-03-20T13:00:51;16.70;99.90
16728;DHT22;8482;54.396;18.590;2023-03-20T13:37:27;13.80;99.90
16728;DHT22;8482;54.396;18.590;2023-03-20T13:40:17;13.50;99.90
16728;DHT22;8482;54.396;18.590;2023-03-20T13:45:47;13.00;99.90
16728;DHT22;8482;54.396;18.590;2023-03-20T13:48:41;12.90;99.90
16728;DHT22;8482;54.396;18.590;2023-03-20T13:51:46;12.70;99.90
16728;DHT22;8482;54.396;18.590;2023-03-20T13:55:05;12.60;99.90
16728;DHT22;8482;54.396;18.590;2023-03-20T14:00:49;12.30;99.90
16728;DHT22;8482;54.396;18.590;2023-03-20T14:07:31;12.00;99.90
16728;DHT22;8482;54.396;18.590;2023-03-20T14:13:03;11.80;99.90
16728;DHT22;8482;54.396;18.590;2023-03-20T14:15:33;11.80;99.90
16728;DHT22;8482;54.396;18.590;2023-03-20T14:18:06;11.70;99.90
16728;DHT22;8482;54.396;18.590;2023-03-20T14:20:40;11.60;99.90
16728;DHT22;8482;54.396;18.590;2023-03-20T14:23:18;11.60;99.90
16728;DHT22;8482;54.396;18.590;2023-03-20T14:25:53;11.50;99.90
16728;DHT22;8482;54.396;18.590;2023-03-20T14:30:47;11.40;99.90
16728;DHT22;8482;54.396;18.590;2023-03-20T14:35:49;11.30;99.90
16728;DHT22;8482;54.396;18.590;2023-03-20T14:39:21;11.30;99.90
16728;DHT22;8482;54.396;18.590;2023-03-20T14:46:59;11.10;99.90
16728;DHT22;8482;54.396;18.590;2023-03-20T14:49:55;11.10;99.90
16728;DHT22;8482;54.396;18.590;2023-03-20T14:57:47;11.00;99.90
16728;DHT22;8482;54.396;18.590;2023-03-20T15:00:20;11.10;99.90
16728;DHT22;8482;54.396;18.590;2023-03-20T15:05:46;11.10;99.90
16728;DHT22;8482;54.396;18.590;2023-03-20T15:08:28;11.00;99.90
16728;DHT22;8482;54.396;18.590;2023-03-20T15:11:04;11.10;99.90
16728;DHT22;8482;54.396;18.590;2023-03-20T15:13:34;11.10;99.90
16728;DHT22;8482;54.396;18.590;2023-03-20T15:16:14;11.10;99.90
16728;DHT22;8482;54.396;18.590;2023-03-20T15:21:16;11.10;99.90
16728;DHT22;8482;54.396;18.590;2023-03-20T15:23:51;11.10;99.90
16728;DHT22;8482;54.396;18.590;2023-03-20T15:26:18;11.10;99.90
16728;DHT22;8482;54.396;18.590;2023-03-20T15:28:47;11.10;99.90
16728;DHT22;8482;54.396;18.590;2023-03-20T15:31:24;11.10;99.90
16728;DHT22;8482;54.396;18.590;2023-03-20T15:34:05;11.10;99.90
16728;DHT22;8482;54.396;18.590;2023-03-20T15:36:34;11.10;99.90
16728;DHT22;8482;54.396;18.590;2023-03-20T15:39:16;11.10;99.90
16728;DHT22;8482;54.396;18.590;2023-03-20T15:41:54;11.10;99.90
16728;DHT22;8482;54.396;18.590;2023-03-20T15:44:23;11.10;99.90
16728;DHT22;8482;54.396;18.590;2023-03-20T15:46:57;11.10;99.90
16728;DHT22;8482;54.396;18.590;2023-03-20T15:49:26;11.10;99.90
16728;DHT22;8482;54.396;18.590;2023-03-20T15:51:58;11.10;99.90
16728;DHT22;8482;54.396;18.590;2023-03-20T15:54:27;11.10;99.90
16728;DHT22;8482;54.396;18.590;2023-03-20T15:56:56;11.20;99.90
16728;DHT22;8482;54.396;18.590;2023-03-20T15:59:28;11.20;99.90
16728;DHT22;8482;54.396;18.590;2023-03-20T16:01:58;11.20;99.90
16728;DHT22;8482;54.396;18.590;2023-03-20T16:04:25;11.10;99.90
16728;DHT22;8482;54.396;18.590;2023-03-20T16:06:58;11.20;99.90
16728;DHT22;8482;54.396;18.590;2023-03-20T16:09:25;11.10;99.90
16728;DHT22;8482;54.396;18.590;2023-03-20T16:12:01;11.10;99.90
16728;DHT22;8482;54.396;18.590;2023-03-20T16:14:31;11.10;99.90
16728;DHT22;8482;54.396;18.590;2023-03-20T16:16:59;11.10;99.90
16728;DHT22;8482;54.396;18.590;2023-03-20T16:19:28;11.00;99.90
16728;DHT22;8482;54.396;18.590;2023-03-20T16:22:00;11.00;99.90
16728;DHT22;8482;54.396;18.590;2023-03-20T16:24:36;10.90;99.90
16728;DHT22;8482;54.396;18.590;2023-03-20T16:27:09;10.90;99.90
16728;DHT22;8482;54.396;18.590;2023-03-20T16:29:42;10.80;99.90
16728;DHT22;8482;54.396;18.590;2023-03-20T16:35:42;10.80;99.90
16728;DHT22;8482;54.396;18.590;2023-03-20T16:38:57;10.70;99.90
16728;DHT22;8482;54.396;18.590;2023-03-20T16:44:12;10.60;99.90
16728;DHT22;8482;54.396;18.590;2023-03-20T16:47:32;10.60;99.90
16728;DHT22;8482;54.396;18.590;2023-03-20T16:52:56;10.50;99.90
16728;DHT22;8482;54.396;18.590;2023-03-20T16:55:27;10.60;99.90
16728;DHT22;8482;54.396;18.590;2023-03-20T16:57:58;10.50;99.90
16728;DHT22;8482;54.396;18.590;2023-03-20T17:00:40;10.50;99.90
16728;DHT22;8482;54.396;18.590;2023-03-20T17:03:17;10.50;99.90
16728;DHT22;8482;54.396;18.590;2023-03-20T17:06:06;10.50;99.90
16728;DHT22;8482;54.396;18.590;2023-03-20T17:09:00;10.50;99.90
16728;DHT22;8482;54.396;18.590;2023-03-20T17:11:36;10.40;99.90
16728;DHT22;8482;54.396;18.590;2023-03-20T17:14:03;10.40;99.90
16728;DHT22;8482;54.396;18.590;2023-03-20T17:16:30;10.40;99.90
16728;DHT22;8482;54.396;18.590;2023-03-20T17:19:05;10.40;99.90
16728;DHT22;8482;54.396;18.590;2023-03-20T17:21:42;10.50;99.90
16728;DHT22;8482;54.396;18.590;2023-03-20T17:24:12;10.40;99.90
16728;DHT22;8482;54.396;18.590;2023-03-20T17:26:40;10.40;99.90
16728;DHT22;8482;54.396;18.590;2023-03-20T17:29:10;10.40;99.90
16728;DHT22;8482;54.396;18.590;2023-03-20T17:31:37;10.40;99.90
16728;DHT22;8482;54.396;18.590;2023-03-20T17:34:03;10.40;99.90
16728;DHT22;8482;54.396;18.590;2023-03-20T17:36:31;10.40;99.90
16728;DHT22;8482;54.396;18.590;2023-03-20T17:38:59;10.30;99.90
16728;DHT22;8482;54.396;18.590;2023-03-20T17:41:26;10.30;99.90
16728;DHT22;8482;54.396;18.590;2023-03-20T17:43:53;10.30;99.90
16728;DHT22;8482;54.396;18.590;2023-03-20T17:46:26;10.30;99.90
16728;DHT22;8482;54.396;18.590;2023-03-20T17:49:04;10.30;99.90
16728;DHT22;8482;54.396;18.590;2023-03-20T17:51:37;10.20;99.90
16728;DHT22;8482;54.396;18.590;2023-03-20T17:54:03;10.20;99.90
16728;DHT22;8482;54.396;18.590;2023-03-20T17:56:29;10.20;99.90
16728;DHT22;8482;54.396;18.590;2023-03-20T17:59:01;10.20;99.90
16728;DHT22;8482;54.396;18.590;2023-03-20T18:01:28;10.20;99.90
16728;DHT22;8482;54.396;18.590;2023-03-20T18:03:54;10.20;99.90
16728;DHT22;8482;54.396;18.590;2023-03-20T18:06:22;10.20;99.90
16728;DHT22;8482;54.396;18.590;2023-03-20T18:08:52;10.10;99.90
16728;DHT22;8482;54.396;18.590;2023-03-20T18:11:19;10.10;99.90
16728;DHT22;8482;54.396;18.590;2023-03-20T18:13:45;10.10;99.90
16728;DHT22;8482;54.396;18.590;2023-03-20T18:16:21;10.10;99.90
16728;DHT22;8482;54.396;18.590;2023-03-20T18:18:51;10.10;99.90
16728;DHT22;8482;54.396;18.590;2023-03-20T18:21:18;10.00;99.90
16728;DHT22;8482;54.396;18.590;2023-03-20T18:23:45;10.00;99.90
16728;DHT22;8482;54.396;18.590;2023-03-20T18:26:22;10.00;99.90
16728;DHT22;8482;54.396;18.590;2023-03-20T18:28:51;10.00;99.90
16728;DHT22;8482;54.396;18.590;2023-03-20T18:31:19;9.90;99.90
16728;DHT22;8482;54.396;18.590;2023-03-20T18:33:51;9.90;99.90
16728;DHT22;8482;54.396;18.590;2023-03-20T18:36:22;9.90;99.90
16728;DHT22;8482;54.396;18.590;2023-03-20T18:38:49;9.90;99.90
16728;DHT22;8482;54.396;18.590;2023-03-20T18:41:16;9.90;99.90
16728;DHT22;8482;54.396;18.590;2023-03-20T18:43:43;9.90;99.90
16728;DHT22;8482;54.396;18.590;2023-03-20T18:46:15;9.90;99.90
16728;DHT22;8482;54.396;18.590;2023-03-20T18:48:46;9.90;99.90
16728;DHT22;8482;54.396;18.590;2023-03-20T18:51:12;9.90;99.90
16728;DHT22;8482;54.396;18.590;2023-03-20T18:53:39;9.80;99.90
16728;DHT22;8482;54.396;18.590;2023-03-20T18:56:14;9.70;99.90
16728;DHT22;8482;54.396;18.590;2023-03-20T18:58:45;9.70;99.90
16728;DHT22;8482;54.396;18.590;2023-03-20T19:01:12;9.70;99.90
16728;DHT22;8482;54.396;18.590;2023-03-20T19:03:40;9.70;99.90
16728;DHT22;8482;54.396;18.590;2023-03-20T19:06:19;9.70;99.90